sensor_id;sensor_type;location;lat;lon;timestamp;P1;durP1;ratioP1;P2;durP2;ratioP2
15202;SDS011;7702;51.046;5.184;2023-04-10T00:02:09;6.80;;;6.10;;
15202;SDS011;7702;51.046;5.184;2023-04-10T00:04:34;7.03;;;6.27;;
15202;SDS011;7702;51.046;5.184;2023-04-10T00:07:00;7.20;;;6.60;;
15202;SDS011;7702;51.046;5.184;2023-04-10T00:09:26;7.20;;;6.50;;
15202;SDS011;7702;51.046;5.184;2023-04-10T00:11:53;7.37;;;6.57;;
15202;SDS011;7702;51.046;5.184;2023-04-10T00:14:20;7.10;;;6.40;;
15202;SDS011;7702;51.046;5.184;2023-04-10T00:16:49;8.33;;;6.70;;
15202;SDS011;7702;51.046;5.184;2023-04-10T00:19:15;6.50;;;5.83;;
15202;SDS011;7702;51.046;5.184;2023-04-10T00:21:42;7.27;;;6.57;;
15202;SDS011;7702;51.046;5.184;2023-04-10T00:24:07;6.90;;;6.20;;
15202;SDS011;7702;51.046;5.184;2023-04-10T00:26:36;7.50;;;6.43;;
15202;SDS011;7702;51.046;5.184;2023-04-10T00:29:02;7.70;;;6.70;;
15202;SDS011;7702;51.046;5.184;2023-04-10T00:31:28;7.27;;;5.93;;
15202;SDS011;7702;51.046;5.184;2023-04-10T00:33:55;6.97;;;6.27;;
15202;SDS011;7702;51.046;5.184;2023-04-10T00:36:21;7.13;;;6.43;;
15202;SDS011;7702;51.046;5.184;2023-04-10T00:38:47;7.60;;;6.20;;
15202;SDS011;7702;51.046;5.184;2023-04-10T00:41:13;7.57;;;6.40;;
15202;SDS011;7702;51.046;5.184;2023-04-10T00:43:40;8.40;;;6.40;;
15202;SDS011;7702;51.046;5.184;2023-04-10T00:46:05;6.43;;;5.83;;
15202;SDS011;7702;51.046;5.184;2023-04-10T00:48:31;7.57;;;6.70;;
15202;SDS011;7702;51.046;5.184;2023-04-10T00:50:58;7.90;;;6.50;;
15202;SDS011;7702;51.046;5.184;2023-04-10T00:53:25;7.50;;;6.67;;
15202;SDS011;7702;51.046;5.184;2023-04-10T00:55:51;7.57;;;6.23;;
15202;SDS011;7702;51.046;5.184;2023-04-10T00:58:17;6.73;;;6.03;;
15202;SDS011;7702;51.046;5.184;2023-04-10T01:00:43;7.27;;;6.40;;
15202;SDS011;7702;51.046;5.184;2023-04-10T01:03:10;6.87;;;5.63;;
15202;SDS011;7702;51.046;5.184;2023-04-10T01:08:21;7.40;;;6.17;;
15202;SDS011;7702;51.046;5.184;2023-04-10T01:11:06;6.80;;;6.07;;
15202;SDS011;7702;51.046;5.184;2023-04-10T01:16:18;5.90;;;5.33;;
15202;SDS011;7702;51.046;5.184;2023-04-10T01:21:20;6.03;;;5.43;;
15202;SDS011;7702;51.046;5.184;2023-04-10T01:29:31;6.20;;;5.60;;
15202;SDS011;7702;51.046;5.184;2023-04-10T01:32:01;6.03;;;5.47;;
15202;SDS011;7702;51.046;5.184;2023-04-10T01:40:00;6.57;;;5.97;;
15202;SDS011;7702;51.046;5.184;2023-04-10T01:42:31;7.00;;;5.67;;
15202;SDS011;7702;51.046;5.184;2023-04-10T01:45:01;6.57;;;5.97;;
15202;SDS011;7702;51.046;5.184;2023-04-10T01:47:31;6.23;;;5.63;;
15202;SDS011;7702;51.046;5.184;2023-04-10T01:49:56;6.23;;;5.63;;
15202;SDS011;7702;51.046;5.184;2023-04-10T01:52:23;9.43;;;6.67;;
15202;SDS011;7702;51.046;5.184;2023-04-10T01:54:51;8.53;;;6.20;;
15202;SDS011;7702;51.046;5.184;2023-04-10T01:57:17;6.93;;;5.93;;
15202;SDS011;7702;51.046;5.184;2023-04-10T01:59:43;7.00;;;6.30;;
15202;SDS011;7702;51.046;5.184;2023-04-10T02:02:09;7.50;;;6.20;;
15202;SDS011;7702;51.046;5.184;2023-04-10T02:04:36;7.10;;;6.40;;
15202;SDS011;7702;51.046;5.184;2023-04-10T02:12:28;6.33;;;5.73;;
15202;SDS011;7702;51.046;5.184;2023-04-10T02:14:58;6.70;;;6.00;;
15202;SDS011;7702;51.046;5.184;2023-04-10T02:17:27;7.20;;;5.90;;
15202;SDS011;7702;51.046;5.184;2023-04-10T02:19:55;6.47;;;5.63;;
15202;SDS011;7702;51.046;5.184;2023-04-10T02:22:22;6.73;;;5.70;;
15202;SDS011;7702;51.046;5.184;2023-04-10T02:24:49;7.13;;;5.87;;
15202;SDS011;7702;51.046;5.184;2023-04-10T02:27:25;7.13;;;6.27;;
15202;SDS011;7702;51.046;5.184;2023-04-10T02:29:54;7.23;;;6.00;;
15202;SDS011;7702;51.046;5.184;2023-04-10T02:32:21;6.63;;;6.03;;
15202;SDS011;7702;51.046;5.184;2023-04-10T02:34:47;8.10;;;6.60;;
15202;SDS011;7702;51.046;5.184;2023-04-10T02:37:12;7.40;;;5.63;;
15202;SDS011;7702;51.046;5.184;2023-04-10T02:39:38;6.93;;;6.07;;
15202;SDS011;7702;51.046;5.184;2023-04-10T02:42:04;7.10;;;5.90;;
15202;SDS011;7702;51.046;5.184;2023-04-10T02:44:30;6.23;;;5.63;;
15202;SDS011;7702;51.046;5.184;2023-04-10T02:46:55;7.97;;;7.17;;
15202;SDS011;7702;51.046;5.184;2023-04-10T02:49:21;8.17;;;6.37;;
15202;SDS011;7702;51.046;5.184;2023-04-10T02:51:47;6.70;;;6.00;;
15202;SDS011;7702;51.046;5.184;2023-04-10T02:54:13;7.47;;;6.00;;
15202;SDS011;7702;51.046;5.184;2023-04-10T02:56:38;7.13;;;6.43;;
15202;SDS011;7702;51.046;5.184;2023-04-10T02:59:04;8.83;;;6.67;;
15202;SDS011;7702;51.046;5.184;2023-04-10T03:01:31;7.00;;;6.30;;
15202;SDS011;7702;51.046;5.184;2023-04-10T03:03:56;7.37;;;6.67;;
15202;SDS011;7702;51.046;5.184;2023-04-10T03:06:23;7.60;;;6.87;;
15202;SDS011;7702;51.046;5.184;2023-04-10T03:08:51;6.83;;;6.13;;
15202;SDS011;7702;51.046;5.184;2023-04-10T03:11:17;6.90;;;5.90;;
15202;SDS011;7702;51.046;5.184;2023-04-10T03:13:43;7.23;;;6.53;;
15202;SDS011;7702;51.046;5.184;2023-04-10T03:16:08;7.53;;;5.50;;
15202;SDS011;7702;51.046;5.184;2023-04-10T03:18:34;7.00;;;6.00;;
15202;SDS011;7702;51.046;5.184;2023-04-10T03:21:00;7.13;;;6.43;;
15202;SDS011;7702;51.046;5.184;2023-04-10T03:23:26;7.67;;;6.30;;
15202;SDS011;7702;51.046;5.184;2023-04-10T03:25:52;8.43;;;6.37;;
15202;SDS011;7702;51.046;5.184;2023-04-10T03:28:19;7.97;;;6.57;;
15202;SDS011;7702;51.046;5.184;2023-04-10T03:30:45;7.70;;;6.90;;
15202;SDS011;7702;51.046;5.184;2023-04-10T03:33:12;6.97;;;6.20;;
15202;SDS011;7702;51.046;5.184;2023-04-10T03:35:37;8.23;;;6.70;;
15202;SDS011;7702;51.046;5.184;2023-04-10T03:38:03;6.40;;;5.80;;
15202;SDS011;7702;51.046;5.184;2023-04-10T03:40:29;7.90;;;6.90;;
15202;SDS011;7702;51.046;5.184;2023-04-10T03:42:55;7.63;;;6.83;;
15202;SDS011;7702;51.046;5.184;2023-04-10T03:45:20;7.30;;;6.00;;
15202;SDS011;7702;51.046;5.184;2023-04-10T03:47:47;8.30;;;6.10;;
15202;SDS011;7702;51.046;5.184;2023-04-10T03:50:12;7.13;;;6.43;;
15202;SDS011;7702;51.046;5.184;2023-04-10T03:52:38;6.67;;;6.07;;
15202;SDS011;7702;51.046;5.184;2023-04-10T03:55:04;6.20;;;5.60;;
15202;SDS011;7702;51.046;5.184;2023-04-10T03:57:30;6.77;;;6.07;;
15202;SDS011;7702;51.046;5.184;2023-04-10T03:59:56;7.00;;;6.10;;
15202;SDS011;7702;51.046;5.184;2023-04-10T04:02:22;7.37;;;5.63;;
15202;SDS011;7702;51.046;5.184;2023-04-10T04:04:47;6.67;;;6.07;;
15202;SDS011;7702;51.046;5.184;2023-04-10T04:07:13;7.57;;;6.27;;
15202;SDS011;7702;51.046;5.184;2023-04-10T04:09:39;7.40;;;6.00;;
15202;SDS011;7702;51.046;5.184;2023-04-10T04:12:05;6.90;;;5.87;;
15202;SDS011;7702;51.046;5.184;2023-04-10T04:14:31;6.97;;;6.07;;
15202;SDS011;7702;51.046;5.184;2023-04-10T04:16:57;9.93;;;6.47;;
15202;SDS011;7702;51.046;5.184;2023-04-10T04:19:23;7.37;;;6.60;;
15202;SDS011;7702;51.046;5.184;2023-04-10T04:21:49;7.13;;;6.43;;
15202;SDS011;7702;51.046;5.184;2023-04-10T04:24:15;7.03;;;6.37;;
15202;SDS011;7702;51.046;5.184;2023-04-10T04:26:41;7.07;;;6.37;;
15202;SDS011;7702;51.046;5.184;2023-04-10T04:29:06;6.43;;;5.70;;
15202;SDS011;7702;51.046;5.184;2023-04-10T04:31:32;7.73;;;6.90;;
15202;SDS011;7702;51.046;5.184;2023-04-10T04:33:58;6.80;;;5.90;;
15202;SDS011;7702;51.046;5.184;2023-04-10T04:36:24;6.97;;;6.27;;
15202;SDS011;7702;51.046;5.184;2023-04-10T04:38:51;6.70;;;6.00;;
15202;SDS011;7702;51.046;5.184;2023-04-10T04:41:17;7.07;;;6.37;;
15202;SDS011;7702;51.046;5.184;2023-04-10T04:43:43;7.20;;;6.50;;
15202;SDS011;7702;51.046;5.184;2023-04-10T04:46:09;7.27;;;6.13;;
15202;SDS011;7702;51.046;5.184;2023-04-10T04:48:35;7.77;;;6.67;;
15202;SDS011;7702;51.046;5.184;2023-04-10T04:51:01;6.80;;;6.00;;
15202;SDS011;7702;51.046;5.184;2023-04-10T04:53:27;7.70;;;6.80;;
15202;SDS011;7702;51.046;5.184;2023-04-10T04:55:53;7.40;;;6.60;;
15202;SDS011;7702;51.046;5.184;2023-04-10T04:58:18;7.17;;;6.47;;
15202;SDS011;7702;51.046;5.184;2023-04-10T05:00:45;7.33;;;6.63;;
15202;SDS011;7702;51.046;5.184;2023-04-10T05:03:10;10.07;;;6.97;;
15202;SDS011;7702;51.046;5.184;2023-04-10T05:05:36;7.43;;;6.50;;
15202;SDS011;7702;51.046;5.184;2023-04-10T05:08:02;7.37;;;6.67;;
15202;SDS011;7702;51.046;5.184;2023-04-10T05:10:28;8.70;;;6.70;;
15202;SDS011;7702;51.046;5.184;2023-04-10T05:12:54;7.47;;;6.50;;
15202;SDS011;7702;51.046;5.184;2023-04-10T05:15:19;7.40;;;6.70;;
15202;SDS011;7702;51.046;5.184;2023-04-10T05:17:45;8.17;;;7.07;;
15202;SDS011;7702;51.046;5.184;2023-04-10T05:20:14;9.37;;;6.90;;
15202;SDS011;7702;51.046;5.184;2023-04-10T05:22:40;8.53;;;6.33;;
15202;SDS011;7702;51.046;5.184;2023-04-10T05:25:06;7.13;;;6.43;;
15202;SDS011;7702;51.046;5.184;2023-04-10T05:27:32;6.97;;;6.27;;
15202;SDS011;7702;51.046;5.184;2023-04-10T05:29:58;8.60;;;6.97;;
15202;SDS011;7702;51.046;5.184;2023-04-10T05:32:24;8.47;;;6.80;;
15202;SDS011;7702;51.046;5.184;2023-04-10T05:34:50;7.57;;;6.57;;
15202;SDS011;7702;51.046;5.184;2023-04-10T05:37:15;7.40;;;6.60;;
15202;SDS011;7702;51.046;5.184;2023-04-10T05:39:41;8.57;;;6.47;;
15202;SDS011;7702;51.046;5.184;2023-04-10T05:42:07;8.07;;;7.13;;
15202;SDS011;7702;51.046;5.184;2023-04-10T05:44:32;7.53;;;6.73;;
15202;SDS011;7702;51.046;5.184;2023-04-10T05:46:59;7.43;;;6.63;;
15202;SDS011;7702;51.046;5.184;2023-04-10T05:49:24;6.93;;;6.23;;
15202;SDS011;7702;51.046;5.184;2023-04-10T05:51:50;8.53;;;6.60;;
15202;SDS011;7702;51.046;5.184;2023-04-10T05:54:17;7.10;;;6.40;;
15202;SDS011;7702;51.046;5.184;2023-04-10T05:56:43;7.33;;;6.63;;
15202;SDS011;7702;51.046;5.184;2023-04-10T05:59:08;6.53;;;5.93;;
15202;SDS011;7702;51.046;5.184;2023-04-10T06:01:34;7.50;;;6.63;;
15202;SDS011;7702;51.046;5.184;2023-04-10T06:04:00;6.87;;;6.00;;
15202;SDS011;7702;51.046;5.184;2023-04-10T06:06:26;7.50;;;6.80;;
15202;SDS011;7702;51.046;5.184;2023-04-10T06:08:53;7.93;;;7.00;;
15202;SDS011;7702;51.046;5.184;2023-04-10T06:11:19;6.87;;;5.90;;
15202;SDS011;7702;51.046;5.184;2023-04-10T06:13:45;7.33;;;6.63;;
15202;SDS011;7702;51.046;5.184;2023-04-10T06:16:11;7.23;;;6.50;;
15202;SDS011;7702;51.046;5.184;2023-04-10T06:18:39;8.17;;;7.37;;
15202;SDS011;7702;51.046;5.184;2023-04-10T06:21:05;7.20;;;6.30;;
15202;SDS011;7702;51.046;5.184;2023-04-10T06:23:31;7.40;;;6.60;;
15202;SDS011;7702;51.046;5.184;2023-04-10T06:25:56;7.43;;;6.53;;
15202;SDS011;7702;51.046;5.184;2023-04-10T06:28:23;7.17;;;6.23;;
15202;SDS011;7702;51.046;5.184;2023-04-10T06:30:49;6.97;;;6.37;;
15202;SDS011;7702;51.046;5.184;2023-04-10T06:33:14;7.03;;;6.37;;
15202;SDS011;7702;51.046;5.184;2023-04-10T06:35:40;8.40;;;6.77;;
15202;SDS011;7702;51.046;5.184;2023-04-10T06:38:06;7.70;;;6.90;;
15202;SDS011;7702;51.046;5.184;2023-04-10T06:40:32;7.07;;;6.37;;
15202;SDS011;7702;51.046;5.184;2023-04-10T06:42:58;7.80;;;6.73;;
15202;SDS011;7702;51.046;5.184;2023-04-10T06:45:24;7.00;;;6.30;;
15202;SDS011;7702;51.046;5.184;2023-04-10T06:47:50;6.90;;;6.30;;
15202;SDS011;7702;51.046;5.184;2023-04-10T06:50:17;7.20;;;6.50;;
15202;SDS011;7702;51.046;5.184;2023-04-10T06:52:43;6.87;;;6.17;;
15202;SDS011;7702;51.046;5.184;2023-04-10T06:55:09;6.67;;;6.07;;
15202;SDS011;7702;51.046;5.184;2023-04-10T06:57:36;7.17;;;6.57;;
15202;SDS011;7702;51.046;5.184;2023-04-10T07:00:03;7.20;;;6.50;;
15202;SDS011;7702;51.046;5.184;2023-04-10T07:02:30;7.00;;;6.30;;
15202;SDS011;7702;51.046;5.184;2023-04-10T07:04:55;6.77;;;6.13;;
15202;SDS011;7702;51.046;5.184;2023-04-10T07:07:22;6.97;;;6.17;;
15202;SDS011;7702;51.046;5.184;2023-04-10T07:09:48;7.53;;;6.43;;
15202;SDS011;7702;51.046;5.184;2023-04-10T07:12:13;15.83;;;6.60;;
15202;SDS011;7702;51.046;5.184;2023-04-10T07:14:39;6.90;;;6.20;;
15202;SDS011;7702;51.046;5.184;2023-04-10T07:17:05;6.73;;;6.03;;
15202;SDS011;7702;51.046;5.184;2023-04-10T07:19:31;6.13;;;5.57;;
15202;SDS011;7702;51.046;5.184;2023-04-10T07:21:56;6.97;;;6.20;;
15202;SDS011;7702;51.046;5.184;2023-04-10T07:24:22;6.63;;;6.03;;
15202;SDS011;7702;51.046;5.184;2023-04-10T07:26:48;6.90;;;6.20;;
15202;SDS011;7702;51.046;5.184;2023-04-10T07:29:14;8.47;;;6.93;;
15202;SDS011;7702;51.046;5.184;2023-04-10T07:31:40;7.20;;;6.27;;
15202;SDS011;7702;51.046;5.184;2023-04-10T07:34:06;7.10;;;6.40;;
15202;SDS011;7702;51.046;5.184;2023-04-10T07:36:32;7.40;;;6.70;;
15202;SDS011;7702;51.046;5.184;2023-04-10T07:38:58;6.83;;;6.23;;
15202;SDS011;7702;51.046;5.184;2023-04-10T07:41:24;7.00;;;6.10;;
15202;SDS011;7702;51.046;5.184;2023-04-10T07:43:49;8.10;;;6.03;;
15202;SDS011;7702;51.046;5.184;2023-04-10T07:46:15;7.10;;;6.40;;
15202;SDS011;7702;51.046;5.184;2023-04-10T07:48:41;6.90;;;6.07;;
15202;SDS011;7702;51.046;5.184;2023-04-10T07:51:08;5.93;;;5.33;;
15202;SDS011;7702;51.046;5.184;2023-04-10T07:53:34;6.90;;;6.30;;
15202;SDS011;7702;51.046;5.184;2023-04-10T07:56:01;6.60;;;6.00;;
15202;SDS011;7702;51.046;5.184;2023-04-10T07:58:26;8.83;;;6.20;;
15202;SDS011;7702;51.046;5.184;2023-04-10T08:00:52;6.53;;;5.87;;
15202;SDS011;7702;51.046;5.184;2023-04-10T08:03:18;6.27;;;5.67;;
15202;SDS011;7702;51.046;5.184;2023-04-10T08:05:44;6.60;;;5.93;;
15202;SDS011;7702;51.046;5.184;2023-04-10T08:08:10;6.20;;;5.60;;
15202;SDS011;7702;51.046;5.184;2023-04-10T08:10:36;6.67;;;6.07;;
15202;SDS011;7702;51.046;5.184;2023-04-10T08:13:04;6.40;;;5.80;;
15202;SDS011;7702;51.046;5.184;2023-04-10T08:15:30;6.50;;;6.00;;
15202;SDS011;7702;51.046;5.184;2023-04-10T08:17:56;6.57;;;5.93;;
15202;SDS011;7702;51.046;5.184;2023-04-10T08:20:22;6.97;;;5.80;;
15202;SDS011;7702;51.046;5.184;2023-04-10T08:22:47;7.00;;;6.40;;
15202;SDS011;7702;51.046;5.184;2023-04-10T08:25:13;6.40;;;5.80;;
15202;SDS011;7702;51.046;5.184;2023-04-10T08:27:40;6.30;;;5.70;;
15202;SDS011;7702;51.046;5.184;2023-04-10T08:30:05;6.53;;;5.93;;
15202;SDS011;7702;51.046;5.184;2023-04-10T08:32:32;7.30;;;6.00;;
15202;SDS011;7702;51.046;5.184;2023-04-10T08:34:57;7.23;;;5.90;;
15202;SDS011;7702;51.046;5.184;2023-04-10T08:37:24;6.80;;;6.10;;
15202;SDS011;7702;51.046;5.184;2023-04-10T08:39:50;6.10;;;5.50;;
15202;SDS011;7702;51.046;5.184;2023-04-10T08:42:16;6.43;;;5.87;;
15202;SDS011;7702;51.046;5.184;2023-04-10T08:44:42;11.73;;;6.73;;
15202;SDS011;7702;51.046;5.184;2023-04-10T08:47:09;6.27;;;5.67;;
15202;SDS011;7702;51.046;5.184;2023-04-10T08:49:57;6.93;;;6.10;;
15202;SDS011;7702;51.046;5.184;2023-04-10T08:52:30;6.43;;;5.63;;
15202;SDS011;7702;51.046;5.184;2023-04-10T08:55:01;6.53;;;5.93;;
15202;SDS011;7702;51.046;5.184;2023-04-10T08:57:30;6.23;;;5.63;;
15202;SDS011;7702;51.046;5.184;2023-04-10T08:59:57;5.30;;;4.90;;
15202;SDS011;7702;51.046;5.184;2023-04-10T09:02:23;5.87;;;5.37;;
15202;SDS011;7702;51.046;5.184;2023-04-10T09:04:52;5.97;;;5.47;;
15202;SDS011;7702;51.046;5.184;2023-04-10T09:07:20;6.10;;;5.50;;
15202;SDS011;7702;51.046;5.184;2023-04-10T09:09:47;5.63;;;5.17;;
15202;SDS011;7702;51.046;5.184;2023-04-10T09:12:13;5.80;;;5.27;;
15202;SDS011;7702;51.046;5.184;2023-04-10T09:14:40;5.73;;;5.23;;
15202;SDS011;7702;51.046;5.184;2023-04-10T09:17:19;5.60;;;5.10;;
15202;SDS011;7702;51.046;5.184;2023-04-10T09:19:46;5.33;;;4.83;;
15202;SDS011;7702;51.046;5.184;2023-04-10T09:22:29;5.37;;;4.97;;
15202;SDS011;7702;51.046;5.184;2023-04-10T09:24:57;5.50;;;5.03;;
15202;SDS011;7702;51.046;5.184;2023-04-10T09:27:27;5.53;;;5.13;;
15202;SDS011;7702;51.046;5.184;2023-04-10T09:29:59;6.10;;;5.50;;
15202;SDS011;7702;51.046;5.184;2023-04-10T09:32:46;5.80;;;5.20;;
15202;SDS011;7702;51.046;5.184;2023-04-10T09:35:11;5.60;;;5.10;;
15202;SDS011;7702;51.046;5.184;2023-04-10T09:37:39;6.23;;;5.63;;
15202;SDS011;7702;51.046;5.184;2023-04-10T09:40:27;5.77;;;5.23;;
15202;SDS011;7702;51.046;5.184;2023-04-10T09:42:52;5.83;;;5.10;;
15202;SDS011;7702;51.046;5.184;2023-04-10T09:45:20;5.47;;;4.97;;
15202;SDS011;7702;51.046;5.184;2023-04-10T09:53:01;5.20;;;4.80;;
15202;SDS011;7702;51.046;5.184;2023-04-10T09:55:27;5.80;;;5.30;;
15202;SDS011;7702;51.046;5.184;2023-04-10T09:57:54;6.00;;;5.30;;
15202;SDS011;7702;51.046;5.184;2023-04-10T10:00:20;6.23;;;5.13;;
15202;SDS011;7702;51.046;5.184;2023-04-10T10:02:46;5.70;;;5.20;;
15202;SDS011;7702;51.046;5.184;2023-04-10T10:05:13;5.50;;;5.00;;
15202;SDS011;7702;51.046;5.184;2023-04-10T10:07:39;5.93;;;5.43;;
15202;SDS011;7702;51.046;5.184;2023-04-10T10:10:06;5.83;;;5.33;;
15202;SDS011;7702;51.046;5.184;2023-04-10T10:15:32;5.40;;;5.00;;
15202;SDS011;7702;51.046;5.184;2023-04-10T10:20:33;4.97;;;4.50;;
15202;SDS011;7702;51.046;5.184;2023-04-10T10:23:05;4.83;;;4.43;;
15202;SDS011;7702;51.046;5.184;2023-04-10T10:25:33;5.20;;;4.70;;
15202;SDS011;7702;51.046;5.184;2023-04-10T10:28:01;5.00;;;4.57;;
15202;SDS011;7702;51.046;5.184;2023-04-10T10:30:29;5.03;;;4.63;;
15202;SDS011;7702;51.046;5.184;2023-04-10T10:32:57;5.27;;;4.77;;
15202;SDS011;7702;51.046;5.184;2023-04-10T10:35:25;5.07;;;4.67;;
15202;SDS011;7702;51.046;5.184;2023-04-10T10:37:51;4.60;;;4.20;;
15202;SDS011;7702;51.046;5.184;2023-04-10T10:43:35;4.57;;;4.23;;
15202;SDS011;7702;51.046;5.184;2023-04-10T10:48:57;5.17;;;4.53;;
15202;SDS011;7702;51.046;5.184;2023-04-10T10:51:41;4.60;;;4.30;;
15202;SDS011;7702;51.046;5.184;2023-04-10T10:56:55;6.20;;;4.43;;
15202;SDS011;7702;51.046;5.184;2023-04-10T11:02:12;4.30;;;3.97;;
15202;SDS011;7702;51.046;5.184;2023-04-10T11:07:11;3.50;;;3.30;;
15202;SDS011;7702;51.046;5.184;2023-04-10T11:12:21;3.50;;;3.20;;
15202;SDS011;7702;51.046;5.184;2023-04-10T11:15:01;3.43;;;3.13;;
15202;SDS011;7702;51.046;5.184;2023-04-10T11:20:18;3.80;;;3.40;;
15202;SDS011;7702;51.046;5.184;2023-04-10T11:23:10;3.43;;;3.23;;
15202;SDS011;7702;51.046;5.184;2023-04-10T11:25:46;3.40;;;3.10;;
15202;SDS011;7702;51.046;5.184;2023-04-10T11:31:13;3.13;;;2.93;;
15202;SDS011;7702;51.046;5.184;2023-04-10T11:36:18;3.37;;;3.10;;
15202;SDS011;7702;51.046;5.184;2023-04-10T11:41:32;3.67;;;3.43;;
15202;SDS011;7702;51.046;5.184;2023-04-10T11:44:00;3.93;;;3.43;;
15202;SDS011;7702;51.046;5.184;2023-04-10T11:46:30;3.70;;;3.40;;
15202;SDS011;7702;51.046;5.184;2023-04-10T11:48:57;3.50;;;3.23;;
15202;SDS011;7702;51.046;5.184;2023-04-10T11:51:24;3.33;;;3.03;;
15202;SDS011;7702;51.046;5.184;2023-04-10T11:54:07;3.47;;;3.23;;
15202;SDS011;7702;51.046;5.184;2023-04-10T11:56:39;3.10;;;2.90;;
15202;SDS011;7702;51.046;5.184;2023-04-10T11:59:06;3.70;;;3.30;;
15202;SDS011;7702;51.046;5.184;2023-04-10T12:01:40;3.43;;;3.13;;
15202;SDS011;7702;51.046;5.184;2023-04-10T12:04:15;3.20;;;3.00;;
15202;SDS011;7702;51.046;5.184;2023-04-10T12:06:43;3.20;;;3.00;;
15202;SDS011;7702;51.046;5.184;2023-04-10T12:09:14;3.30;;;2.80;;
15202;SDS011;7702;51.046;5.184;2023-04-10T12:12:00;3.40;;;3.10;;
15202;SDS011;7702;51.046;5.184;2023-04-10T12:14:30;3.40;;;2.60;;
15202;SDS011;7702;51.046;5.184;2023-04-10T12:17:01;3.37;;;3.17;;
15202;SDS011;7702;51.046;5.184;2023-04-10T12:19:28;3.20;;;2.90;;
15202;SDS011;7702;51.046;5.184;2023-04-10T12:21:54;3.00;;;2.80;;
15202;SDS011;7702;51.046;5.184;2023-04-10T12:29:45;3.43;;;3.13;;
15202;SDS011;7702;51.046;5.184;2023-04-10T12:32:12;3.30;;;3.00;;
15202;SDS011;7702;51.046;5.184;2023-04-10T12:34:38;2.87;;;2.70;;
15202;SDS011;7702;51.046;5.184;2023-04-10T12:37:05;3.40;;;3.10;;
15202;SDS011;7702;51.046;5.184;2023-04-10T12:39:31;3.50;;;3.20;;
15202;SDS011;7702;51.046;5.184;2023-04-10T12:45:03;2.57;;;2.37;;
15202;SDS011;7702;51.046;5.184;2023-04-10T12:47:30;3.10;;;2.90;;
15202;SDS011;7702;51.046;5.184;2023-04-10T12:50:12;3.07;;;2.67;;
15202;SDS011;7702;51.046;5.184;2023-04-10T12:52:41;3.47;;;2.80;;
15202;SDS011;7702;51.046;5.184;2023-04-10T12:55:15;3.10;;;2.70;;
15202;SDS011;7702;51.046;5.184;2023-04-10T12:57:43;3.40;;;2.90;;
15202;SDS011;7702;51.046;5.184;2023-04-10T13:00:11;2.60;;;2.40;;
15202;SDS011;7702;51.046;5.184;2023-04-10T13:02:39;3.17;;;2.97;;
15202;SDS011;7702;51.046;5.184;2023-04-10T13:05:05;3.53;;;3.20;;
15202;SDS011;7702;51.046;5.184;2023-04-10T13:07:32;3.23;;;2.57;;
15202;SDS011;7702;51.046;5.184;2023-04-10T13:09:58;2.40;;;2.30;;
15202;SDS011;7702;51.046;5.184;2023-04-10T13:12:25;2.70;;;2.43;;
15202;SDS011;7702;51.046;5.184;2023-04-10T13:14:51;2.70;;;2.50;;
15202;SDS011;7702;51.046;5.184;2023-04-10T13:17:21;2.77;;;2.53;;
15202;SDS011;7702;51.046;5.184;2023-04-10T13:19:48;2.50;;;2.37;;
15202;SDS011;7702;51.046;5.184;2023-04-10T13:22:14;2.70;;;2.50;;
15202;SDS011;7702;51.046;5.184;2023-04-10T13:24:40;2.43;;;2.23;;
15202;SDS011;7702;51.046;5.184;2023-04-10T13:27:07;2.60;;;2.40;;
15202;SDS011;7702;51.046;5.184;2023-04-10T13:29:34;2.70;;;2.50;;
15202;SDS011;7702;51.046;5.184;2023-04-10T13:32:03;2.70;;;2.50;;
15202;SDS011;7702;51.046;5.184;2023-04-10T13:34:32;3.37;;;2.17;;
15202;SDS011;7702;51.046;5.184;2023-04-10T13:36:58;2.60;;;2.40;;
15202;SDS011;7702;51.046;5.184;2023-04-10T13:39:25;2.30;;;2.20;;
15202;SDS011;7702;51.046;5.184;2023-04-10T13:41:54;2.60;;;2.40;;
15202;SDS011;7702;51.046;5.184;2023-04-10T13:44:21;2.50;;;2.30;;
15202;SDS011;7702;51.046;5.184;2023-04-10T13:46:47;2.90;;;2.60;;
15202;SDS011;7702;51.046;5.184;2023-04-10T13:49:13;2.43;;;2.33;;
15202;SDS011;7702;51.046;5.184;2023-04-10T13:51:41;2.63;;;2.43;;
15202;SDS011;7702;51.046;5.184;2023-04-10T13:54:08;2.70;;;2.50;;
15202;SDS011;7702;51.046;5.184;2023-04-10T13:56:34;2.40;;;2.30;;
15202;SDS011;7702;51.046;5.184;2023-04-10T13:59:00;2.40;;;2.30;;
15202;SDS011;7702;51.046;5.184;2023-04-10T14:01:26;2.50;;;2.40;;
15202;SDS011;7702;51.046;5.184;2023-04-10T14:03:52;2.67;;;2.47;;
15202;SDS011;7702;51.046;5.184;2023-04-10T14:06:17;2.70;;;2.50;;
15202;SDS011;7702;51.046;5.184;2023-04-10T14:08:43;2.80;;;2.63;;
15202;SDS011;7702;51.046;5.184;2023-04-10T14:11:08;3.10;;;2.90;;
15202;SDS011;7702;51.046;5.184;2023-04-10T14:13:34;2.63;;;2.43;;
15202;SDS011;7702;51.046;5.184;2023-04-10T14:16:00;2.70;;;2.50;;
15202;SDS011;7702;51.046;5.184;2023-04-10T14:18:27;2.97;;;2.77;;
15202;SDS011;7702;51.046;5.184;2023-04-10T14:20:53;2.70;;;2.50;;
15202;SDS011;7702;51.046;5.184;2023-04-10T14:23:19;2.93;;;2.73;;
15202;SDS011;7702;51.046;5.184;2023-04-10T14:25:46;3.30;;;3.03;;
15202;SDS011;7702;51.046;5.184;2023-04-10T14:28:14;5.47;;;5.07;;
15202;SDS011;7702;51.046;5.184;2023-04-10T14:30:43;2.77;;;2.57;;
15202;SDS011;7702;51.046;5.184;2023-04-10T14:33:14;5.73;;;5.33;;
15202;SDS011;7702;51.046;5.184;2023-04-10T14:35:41;8.07;;;7.60;;
15202;SDS011;7702;51.046;5.184;2023-04-10T14:38:08;9.43;;;8.67;;
15202;SDS011;7702;51.046;5.184;2023-04-10T14:40:34;3.10;;;2.90;;
15202;SDS011;7702;51.046;5.184;2023-04-10T14:43:00;2.87;;;2.67;;
15202;SDS011;7702;51.046;5.184;2023-04-10T14:45:26;2.80;;;2.57;;
15202;SDS011;7702;51.046;5.184;2023-04-10T14:47:52;3.37;;;2.90;;
15202;SDS011;7702;51.046;5.184;2023-04-10T14:50:19;2.37;;;2.17;;
15202;SDS011;7702;51.046;5.184;2023-04-10T14:52:44;2.60;;;2.40;;
15202;SDS011;7702;51.046;5.184;2023-04-10T14:55:10;3.80;;;2.53;;
15202;SDS011;7702;51.046;5.184;2023-04-10T14:57:36;2.40;;;2.30;;
15202;SDS011;7702;51.046;5.184;2023-04-10T15:00:02;2.77;;;2.57;;
15202;SDS011;7702;51.046;5.184;2023-04-10T15:02:28;2.73;;;2.53;;
15202;SDS011;7702;51.046;5.184;2023-04-10T15:04:55;2.67;;;2.30;;
15202;SDS011;7702;51.046;5.184;2023-04-10T15:07:21;2.43;;;2.23;;
15202;SDS011;7702;51.046;5.184;2023-04-10T15:09:48;2.30;;;2.10;;
15202;SDS011;7702;51.046;5.184;2023-04-10T15:12:14;2.57;;;2.37;;
15202;SDS011;7702;51.046;5.184;2023-04-10T15:14:39;2.70;;;2.50;;
15202;SDS011;7702;51.046;5.184;2023-04-10T15:17:05;5.37;;;5.00;;
15202;SDS011;7702;51.046;5.184;2023-04-10T15:19:31;4.40;;;4.17;;
15202;SDS011;7702;51.046;5.184;2023-04-10T15:21:57;6.10;;;5.60;;
15202;SDS011;7702;51.046;5.184;2023-04-10T15:24:22;7.00;;;6.43;;
15202;SDS011;7702;51.046;5.184;2023-04-10T15:26:48;4.53;;;4.13;;
15202;SDS011;7702;51.046;5.184;2023-04-10T15:29:15;5.30;;;4.90;;
15202;SDS011;7702;51.046;5.184;2023-04-10T15:31:40;3.60;;;3.40;;
15202;SDS011;7702;51.046;5.184;2023-04-10T15:34:06;5.40;;;5.10;;
15202;SDS011;7702;51.046;5.184;2023-04-10T15:36:33;4.10;;;3.63;;
15202;SDS011;7702;51.046;5.184;2023-04-10T15:38:58;3.27;;;3.07;;
15202;SDS011;7702;51.046;5.184;2023-04-10T15:41:26;7.73;;;7.07;;
15202;SDS011;7702;51.046;5.184;2023-04-10T15:43:52;2.90;;;2.80;;
15202;SDS011;7702;51.046;5.184;2023-04-10T15:46:17;3.93;;;3.43;;
15202;SDS011;7702;51.046;5.184;2023-04-10T15:48:44;6.50;;;6.00;;
15202;SDS011;7702;51.046;5.184;2023-04-10T15:51:10;20.70;;;18.73;;
15202;SDS011;7702;51.046;5.184;2023-04-10T15:53:36;10.43;;;9.53;;
15202;SDS011;7702;51.046;5.184;2023-04-10T15:56:05;8.50;;;7.80;;
15202;SDS011;7702;51.046;5.184;2023-04-10T15:58:31;15.33;;;13.80;;
15202;SDS011;7702;51.046;5.184;2023-04-10T16:00:57;9.43;;;8.50;;
15202;SDS011;7702;51.046;5.184;2023-04-10T16:03:23;3.53;;;3.23;;
15202;SDS011;7702;51.046;5.184;2023-04-10T16:05:50;3.57;;;2.17;;
15202;SDS011;7702;51.046;5.184;2023-04-10T16:08:16;3.70;;;2.57;;
15202;SDS011;7702;51.046;5.184;2023-04-10T16:10:43;2.37;;;2.07;;
15202;SDS011;7702;51.046;5.184;2023-04-10T16:13:08;3.77;;;2.50;;